Home > Products > Valid Products > MTR

000
SAUS45 KPUB 211458
MTRSPD
METAR KSPD 211456Z AUTO 33014G19KT 23/13 A3003 RMK AO1 SLP097
T02330128 51018





000
SAUS45 KPUB 211357
MTRSPD
METAR KSPD 211356Z AUTO 33016G21KT 22/13 A3001 RMK AO1 SLP092
T02220128





000
SAUS45 KPUB 211257
MTRSPD
METAR KSPD 211256Z AUTO 31007KT 18/12 A3000 RMK AO1 SLP090 T01830122





000
SAUS45 KPUB 211158
MTRSPD
METAR KSPD 211156Z AUTO 28008KT 17/12 A2997 RMK AO1 SLP077 T01720117
10244 20172 53015





000
SAUS45 KPUB 211058
MTRSPD
METAR KSPD 211056Z AUTO 24005KT 18/14 A2995 RMK AO1 SLP069 T01780139





000
SAUS45 KPUB 210957
MTRSPD
METAR KSPD 210956Z AUTO 21008KT 21/15 A2993 RMK AO1 SLP058 T02060150





000
SAUS45 KPUB 210858
MTRSPD
METAR KSPD 210856Z AUTO 20015KT 22/15 A2992 RMK AO1 SLP051 T02170150
58003





000
SAUS45 KPUB 210758
MTRSPD
METAR KSPD 210756Z AUTO 20010KT 23/15 A2992 RMK AO1 SLP054 T02280150





000
SAUS45 KPUB 210657
MTRSPD
METAR KSPD 210656Z AUTO 20012G20KT 23/14 A2993 RMK AO1 SLP055
T02330144 403610183





000
SAUS45 KPUB 210557
MTRSPD
METAR KSPD 210556Z AUTO 20019G23KT 24/14 A2993 RMK AO1 SLP055
T02440139 10322 20239 51009





000
SAUS45 KPUB 210457
MTRSPD
METAR KSPD 210456Z AUTO 19012KT 24/13 A2992 RMK AO1 SLP054 T02390133





000
SAUS45 KPUB 210357
MTRSPD
METAR KSPD 210356Z AUTO 20011KT 26/13 A2991 RMK AO1 SLP051 T02560133





000
SAUS45 KPUB 210257
MTRSPD
METAR KSPD 210256Z AUTO 19011KT 28/12 A2990 RMK AO1 SLP047 T02780117
53016





000
SAUS45 KPUB 210157
MTRSPD
METAR KSPD 210156Z AUTO 29007KT 28/10 A2987 RMK AO1 SLP039 T02830100





000
SAUS45 KPUB 210057
MTRSPD
METAR KSPD 210056Z AUTO 25005KT 31/09 A2986 RMK AO1 SLP039 T03060094





000
SAUS45 KPUB 202358
MTRSPD
METAR KSPD 202356Z AUTO 21007G17KT 32/08 A2984 RMK AO1 SLP033
T03220083 10361 20317 56003





000
SAUS45 KPUB 202257
MTRSPD
METAR KSPD 202256Z AUTO 21013KT 33/08 A2984 RMK AO1 SLP030 T03330078





000
SAUS45 KPUB 202157
MTRSPD
METAR KSPD 202156Z AUTO 22018G24KT 34/08 A2985 RMK AO1 SLP030
T03390083





000
SAUS45 KPUB 202057
MTRSPD
METAR KSPD 202056Z AUTO 21013G22KT 36/08 A2985 RMK AO1 SLP029
T03560083 56011





000
SAUS45 KPUB 202005 COR
MTRSPD
METAR KSPD 201956Z AUTO 23013G18KT 34/08 A2986 RMK AO1 SLP035
T03390078





000
SAUS45 KPUB 201857
MTRSPD
METAR KSPD 201856Z AUTO 23012G18KT 34/08 A2987 RMK AO1 SLP038
T03390078





000
SAUS45 KPUB 201757
MTRSPD
METAR KSPD 201756Z AUTO 20013G21KT 33/09 A2989 RMK AO1 SLP044
T03280094 10339 20183 50001





000
SAUS45 KPUB 201657
MTRSPD
METAR KSPD 201656Z AUTO 24009G18KT 32/10 A2990 RMK AO1 SLP047
T03170100





000
SAUS45 KPUB 201558
MTRSPD
METAR KSPD 201556Z AUTO 22012G19KT 30/11 A2989 RMK AO1 SLP045
T03000106





000
SAUS45 KPUB 201457
MTRSPD
METAR KSPD 201456Z AUTO 23012KT 28/13 A2989 RMK AO1 SLP045 T02780128
58001





000
SAUS45 KPUB 201357
MTRSPD
METAR KSPD 201356Z AUTO 22008KT 23/14 A2990 RMK AO1 SLP053 T02330139





000
SAUS45 KPUB 201257
MTRSPD
METAR KSPD 201256Z AUTO 22008KT 20/15 A2989 RMK AO1 SLP050 T02000150





000
SAUS45 KPUB 201158
MTRSPD
METAR KSPD 201156Z AUTO 22006KT 18/15 A2989 RMK AO1 SLP047 T01830150
10222 20183 55004





000
SAUS45 KPUB 201057
MTRSPD
METAR KSPD 201056Z AUTO 21009KT 20/15 A2989 RMK AO1 SLP044 T02000150





000
SAUS45 KPUB 200957
MTRSPD
METAR KSPD 200956Z AUTO 20010KT 21/15 A2989 RMK AO1 SLP046 T02060150





000
SAUS45 KPUB 200857
MTRSPD
METAR KSPD 200856Z AUTO 20011KT 21/15 A2990 RMK AO1 SLP049 T02060150
56007





000
SAUS45 KPUB 200757
MTRSPD
METAR KSPD 200756Z AUTO 20012KT 22/14 A2991 RMK AO1 SLP049 T02170144





000
SAUS45 KPUB 200658
MTRSPD
METAR KSPD 200656Z AUTO 19013KT 22/14 A2992 RMK AO1 SLP052 T02170139
403560172





000
SAUS45 KPUB 200603 COR
MTRSPD
METAR KSPD 200556Z AUTO 18011KT 22/13 A2992 RMK AO1 SLP056 T02220133
10333 20222 51008





000
SAUS45 KPUB 200558 COR
MTRSPD
METAR KSPD 200556Z AUTO 18011KT 22/13 A2992 RMK AO1 SLP056 T02220133
10333 20222 51008





000
SAUS45 KPUB 200457
MTRSPD
METAR KSPD 200456Z AUTO 18012KT 23/13 A2992 RMK AO1 SLP055 T02330133





000
SAUS45 KPUB 200357
MTRSPD
METAR KSPD 200356Z AUTO 17014KT 24/13 A2991 RMK AO1 SLP053 T02440128





000
SAUS45 KPUB 200258
MTRSPD
METAR KSPD 200256Z AUTO 16013KT 26/12 A2990 RMK AO1 SLP050 T02560117
53013





000
SAUS45 KPUB 200157
MTRSPD
METAR KSPD 200156Z AUTO 16015KT 27/12 A2987 RMK AO1 SLP044 T02720117





000
SAUS45 KPUB 200057
MTRSPD
METAR KSPD 200056Z AUTO 16014G22KT 31/08 A2986 RMK AO1 SLP039
T03060083





000
SAUS45 KPUB 192358
MTRSPD
METAR KSPD 192356Z AUTO 18014G23KT 33/06 A2985 RMK AO1 SLP037
T03330056 10356 20322 56007





000
SAUS45 KPUB 192257
MTRSPD
METAR KSPD 192256Z AUTO 16014KT 33/06 A2985 RMK AO1 SLP035 T03280056





000
SAUS45 KPUB 192157
MTRSPD
METAR KSPD 192156Z AUTO 17015G23KT 34/05 A2986 RMK AO1 SLP032
T03390050





000
SAUS45 KPUB 192058
MTRSPD
METAR KSPD 192056Z AUTO 19011G22KT 35/07 A2988 RMK AO1 SLP038
T03500067 58017





000
SAUS45 KPUB 191957
MTRSPD
METAR KSPD 191956Z AUTO 17018G23KT 34/09 A2990 RMK AO1 PK WND
17029/1925 SLP049 T03440089





000
SAUS45 KPUB 191858
MTRSPD
METAR KSPD 191856Z AUTO 19016G22KT 34/10 A2991 RMK AO1 SLP051
T03440100





000
SAUS45 KPUB 191759
MTRSPD
METAR KSPD 191756Z AUTO 20017G22KT 33/10 A2994 RMK AO1 SLP061
T03280100 10328 20172 58008





000
SAUS45 KPUB 191657
MTRSPD
METAR KSPD 191656Z AUTO 21010G20KT 32/10 A2995 RMK AO1 SLP068
T03170100





000
SAUS45 KPUB 191558
MTRSPD
METAR KSPD 191556Z AUTO 19014KT 28/10 A2997 RMK AO1 SLP078 T02830100





000
SAUS45 KPUB 191457
MTRSPD
METAR KSPD 191456Z AUTO 22013KT 26/10 A2996 RMK AO1 SLP077 T02610100
58003





000
SAUS45 KPUB 191357
MTRSPD
METAR KSPD 191356Z AUTO 18012KT 23/10 A2997 RMK AO1 SLP078 T02280100





000
SAUS45 KPUB 191258
MTRSPD
METAR KSPD 191256Z AUTO 17012KT 19/09 A2998 RMK AO1 SLP081 T01940094





000
SAUS45 KPUB 191157
MTRSPD
METAR KSPD 191156Z AUTO 17010KT 18/09 A2997 RMK AO1 SLP078 T01780089
10222 20178 53005





000
SAUS45 KPUB 191057
MTRSPD
METAR KSPD 191056Z AUTO 16012KT 19/09 A2996 RMK AO1 SLP071 T01890089





000
SAUS45 KPUB 190957
MTRSPD
METAR KSPD 190956Z AUTO 21010KT 22/09 A2995 RMK AO1 SLP061 T02170089





000
SAUS45 KPUB 190858
MTRSPD
METAR KSPD 190856Z AUTO 22012KT 22/08 A2996 RMK AO1 SLP065 T02220083
58009





000
SAUS45 KPUB 190757
MTRSPD
METAR KSPD 190756Z AUTO 22008KT 19/08 A2997 RMK AO1 SLP074 T01940078





000
SAUS45 KPUB 190658
MTRSPD
METAR KSPD 190656Z AUTO 19011KT 22/08 A2998 RMK AO1 SLP075 T02220078
403610167





000
SAUS45 KPUB 190558
MTRSPD
METAR KSPD 190556Z AUTO 18010KT 22/08 A2999 RMK AO1 SLP079 T02170078
10328 20206 51013





000
SAUS45 KPUB 190457
MTRSPD
METAR KSPD 190456Z AUTO 18010KT 22/08 A2997 RMK AO1 SLP073 T02220083





000
SAUS45 KPUB 190357
MTRSPD
METAR KSPD 190356Z AUTO 16011KT 22/08 A2997 RMK AO1 SLP077 T02220083





000
SAUS45 KPUB 190257
MTRSPD
METAR KSPD 190256Z AUTO 22006KT 23/08 A2995 RMK AO1 SLP070 T02280083
53007





000
SAUS45 KPUB 190157
MTRSPD
METAR KSPD 190156Z AUTO 22007KT 27/08 A2992 RMK AO1 SLP062 T02670078





000
SAUS45 KPUB 190057
MTRSPD
METAR KSPD 190056Z AUTO 22011KT 31/07 A2992 RMK AO1 SLP061 T03110067





000
SAUS45 KPUB 182357
MTRSPD
METAR KSPD 182356Z AUTO 23014G23KT 33/06 A2992 RMK AO1 PK WND
23030/2317 SLP059 T03280061 10361 20322 56009





000
SAUS45 KPUB 182257
MTRSPD
METAR KSPD 182256Z AUTO 36/01 A2992 RMK AO1 SLP058 T03560006





000
SAUS45 KPUB 182157
MTRSPD
METAR KSPD 182156Z AUTO 33008KT 36/03 A2993 RMK AO1 SLP058 T03560028





000
SAUS45 KPUB 182057
MTRSPD
METAR KSPD 182056Z AUTO VRB04KT 36/04 A2995 RMK AO1 SLP063 T03560039
58019





    US Dept of Commerce
    National Oceanic and Atmospheric Administration
    National Weather Service
    1325 East West Highway
    Silver Spring, MD 20910
    Page Author: NWS Internet Services Team
Disclaimer
Information Quality
Credits
Glossary
Privacy Policy
Freedom of Information Act (FOIA)
About Us
Career Opportunities